AK2 weather

CLOSED Bowron Lake Airport
Bowron Lake, British Columbia, Canada

Public forecast

Using degrees Celsius for public forecast. Weather courtesy of forecast.io.

METAR (pilot weather report)

Closest report is Quesnel Airport, 41.6 nm (77.0 km) WSW. Retrieved 2019/08/19 21:00 UTC (37 minutes ago):

CYQZ 192100Z AUTO 21006KT 150V230 9SM CLR 21/07 A2992 RMK SLP138 DENSITY ALT 2800FT

TAF (pilot weather forecast)

Closest forecast is Quesnel Airport, 41.6 nm (77.0 km) WSW. Retrieved 2019/08/19 19:00 UTC (3 hours ago):

TAF CYQZ 191838Z 1919/2006 VRB03KT P6SM SCT060 SCT150 BECMG 1920/1922 12008KT FM200000 12008KT P6SM SCT060 BKN120 BECMG 2001/2003 VRB03KT RMK FCST BASED ON AUTO OBS. NXT FCST BY 200100Z